Pagina principale
METAR-TAF:

METAR-TAF

Aeroporti :

Aeroporto di Annaba-Rabah Bitat

Annaba, Algeria

latitudine: 36-50N, longitudine: 007-49E, altezza: 4 m

Osservazione

Il bollettino è stato emesso 36 minuti fa, alle 02:00 UTC
Vento 2 kt da ovest
Temperature 20°C
Umidità 73%
Pressione 1019 hPa
Visibilità 10 km o più
Poco nuvoloso ad un'altezza di 2300 ft
Nuvoloso ad un'altezza di 3300 ft

METAR: DABB 160200Z 26002KT 9999 FEW023 BKN033 20/15 Q1019

Ora: 03:36 (02:36 UTC)

Previsione

Il bollettino è stato emesso 3 ore e 36 minuti fa, alle 23:00 UTC
Previsione valida dal 16 alle 00 UTC al 16 alle 24 UTC
Vento 8 kt da sud-ovest
Visibilità 10 km o più
Nubi sparse ad un'altezza di 2300 ft
Nubi sparse ad un'altezza di 3300 ft
Probabilità 30% :
Temporaneamente
dal 16 alle 00 UTC al 16 alle 06 UTC
Visibilità: 2000 m
Nubi sparse ad un'altezza di 1000 ft
foschia

TAF: DABB 152300Z 1600/1624 22008KT 9999 SCT023 SCT033 PROB30 TEMPO 1600/1606 2000 BR SCT010

Osservazioni e previsioni meteorologiche di più di 4000 aeroporti (messaggi METAR e TAF).

Le stazioni disponibili sono rappresentate dai dischi gialli e rossi sulla carta.

Puntare il mouse per vedere il nome della stazione.

Clicca sopra per visualizzare le osservazioni e previsioni meteorologiche.

Per cambiare la mappa : fare clic sui pulsanti verdi con una croce nera per ingrandire, il pulsante verde con un trattino per diminuire, o sulla freccia verde per le mappe adiacenti.


METAR-TAF: